createdAt,value
2017-04-07T07:23:56.038Z,9.10
2017-04-07T07:24:55.118Z,9.00
2017-04-07T07:25:54.174Z,9.00
2017-04-07T07:26:53.246Z,9.00
2017-04-07T07:27:52.312Z,9.10
2017-04-07T07:28:51.362Z,9.10
2017-04-07T07:29:50.538Z,9.10
2017-04-07T07:30:49.606Z,9.20
2017-04-07T07:31:49.486Z,9.10
2017-04-07T07:32:49.332Z,9.10
2017-04-07T07:33:48.448Z,9.10
2017-04-07T07:34:47.506Z,9.10
2017-04-07T07:35:46.595Z,9.10
2017-04-07T07:36:46.058Z,9.20
2017-04-07T07:37:45.858Z,9.10
2017-04-07T07:38:45.671Z,9.20
2017-04-07T07:39:45.500Z,9.30
2017-04-07T07:40:44.615Z,9.30
2017-04-07T07:41:43.671Z,9.40
2017-04-07T07:42:42.729Z,9.40
2017-04-07T07:43:41.765Z,9.40
2017-04-07T07:44:40.852Z,9.50
2017-04-07T07:45:39.929Z,9.50
2017-04-07T07:46:39.218Z,9.50
2017-04-07T07:47:38.288Z,9.50
2017-04-07T07:48:37.363Z,9.50
2017-04-07T07:49:36.450Z,9.40
2017-04-07T07:50:35.534Z,9.40
2017-04-07T07:51:34.650Z,9.30
2017-04-07T07:52:33.702Z,9.30
2017-04-07T07:53:32.785Z,9.30
2017-04-07T07:54:31.844Z,9.40
2017-04-07T07:55:31.651Z,9.30
2017-04-07T07:56:31.467Z,9.30
2017-04-07T07:57:30.701Z,9.40
2017-04-07T07:58:29.779Z,9.40
2017-04-07T07:59:28.842Z,9.40
2017-04-07T08:00:27.922Z,9.40
2017-04-07T08:01:26.992Z,9.40
2017-04-07T08:02:26.043Z,9.40
2017-04-07T08:03:26.171Z,9.40
2017-04-07T08:04:25.968Z,9.50
2017-04-07T08:05:26.071Z,9.50
2017-04-07T08:06:25.867Z,9.50
2017-04-07T08:07:25.674Z,9.50
2017-04-07T08:08:25.535Z,9.60
2017-04-07T08:09:24.606Z,9.80
2017-04-07T08:10:23.675Z,9.90
2017-04-07T08:11:22.745Z,10.00
2017-04-07T08:12:22.561Z,10.00
2017-04-07T08:13:21.635Z,10.10
2017-04-07T08:14:20.751Z,10.10
2017-04-07T08:15:19.811Z,10.10
2017-04-07T08:16:18.854Z,10.10
2017-04-07T08:18:17.354Z,10.40
2017-04-07T08:19:17.443Z,10.30
2017-04-07T08:20:16.566Z,10.40
2017-04-07T08:21:15.633Z,10.40
2017-04-07T08:22:15.435Z,10.30
2017-04-07T08:23:15.254Z,10.30
2017-04-07T08:24:14.319Z,10.40
2017-04-07T08:25:14.123Z,10.30
2017-04-07T08:26:13.982Z,10.30
2017-04-07T08:27:13.050Z,10.40
2017-04-07T08:28:12.515Z,10.40
2017-04-07T08:29:11.794Z,10.40
2017-04-07T08:30:11.606Z,10.30
2017-04-07T08:31:10.673Z,10.40
2017-04-07T08:32:10.518Z,10.40
2017-04-07T08:33:09.583Z,10.50
2017-04-07T08:34:08.639Z,10.50
2017-04-07T08:36:07.177Z,10.70
2017-04-07T08:37:06.299Z,10.70
2017-04-07T08:38:05.353Z,10.70
2017-04-07T08:39:05.007Z,10.70
2017-04-07T08:40:04.119Z,10.70
2017-04-07T08:41:04.946Z,10.70
2017-04-07T08:42:05.329Z,10.60
2017-04-07T08:43:04.591Z,10.60
2017-04-07T08:44:03.659Z,10.60
2017-04-07T08:45:02.976Z,10.60
2017-04-07T08:46:02.420Z,10.70
2017-04-07T08:47:01.691Z,10.70
2017-04-07T08:48:00.886Z,10.70
2017-04-07T08:49:00.082Z,10.70
2017-04-07T08:50:00.067Z,10.80
2017-04-07T08:51:00.710Z,10.80
2017-04-07T08:51:59.778Z,10.80
2017-04-07T08:52:58.863Z,10.80
2017-04-07T08:53:57.914Z,10.80
2017-04-07T08:54:57.078Z,10.90
2017-04-07T08:55:56.282Z,11.00
2017-04-07T08:56:55.372Z,10.90
2017-04-07T08:57:56.631Z,10.90
2017-04-07T08:58:56.532Z,11.00
2017-04-07T08:59:56.476Z,11.10
2017-04-07T09:00:55.523Z,11.20
2017-04-07T09:01:55.462Z,11.20
2017-04-07T09:02:54.564Z,11.40
2017-04-07T09:03:53.953Z,11.40
2017-04-07T09:04:53.074Z,11.50
2017-04-07T09:05:53.022Z,11.40
2017-04-07T09:06:52.099Z,11.40
2017-04-07T09:07:51.686Z,11.30
2017-04-07T09:08:52.094Z,11.30
2017-04-07T09:09:51.898Z,11.30
2017-04-07T09:10:52.010Z,11.30
2017-04-07T09:11:51.316Z,11.30
2017-04-07T09:12:50.468Z,11.30
2017-04-07T09:13:50.466Z,11.30
2017-04-07T09:14:50.372Z,11.40
2017-04-07T09:15:49.511Z,11.60
2017-04-07T09:16:48.686Z,11.70
2017-04-07T09:17:48.445Z,11.70
2017-04-07T09:19:46.962Z,11.90
2017-04-07T09:20:46.099Z,11.90
2017-04-07T09:21:45.212Z,12.00
2017-04-07T09:22:45.029Z,11.90
2017-04-07T09:23:44.255Z,12.10
2017-04-07T09:24:44.586Z,12.10
2017-04-07T09:25:44.155Z,12.10
2017-04-07T09:26:43.283Z,12.20
2017-04-07T09:27:43.235Z,12.20
2017-04-07T09:28:43.015Z,12.30
2017-04-07T09:29:42.438Z,12.40
2017-04-07T09:30:42.283Z,12.50
2017-04-07T09:31:42.105Z,12.50
2017-04-07T09:32:41.989Z,12.60
2017-04-07T09:33:41.829Z,12.60
2017-04-07T09:34:41.058Z,12.50
2017-04-07T09:35:40.239Z,12.60
2017-04-07T09:36:40.015Z,12.60
2017-04-07T09:37:39.288Z,12.70
2017-04-07T09:38:38.412Z,12.80
2017-04-07T09:39:37.560Z,13.00
2017-04-07T09:40:42.446Z,13.20
2017-04-07T09:41:42.343Z,13.20
2017-04-07T09:42:42.491Z,13.20
2017-04-07T09:43:42.347Z,13.10
2017-04-07T09:44:41.460Z,13.10
2017-04-07T09:45:41.056Z,13.00
2017-04-07T09:46:41.334Z,13.00
2017-04-07T09:47:40.461Z,13.00
2017-04-07T09:48:43.780Z,13.00
2017-04-07T09:49:42.835Z,13.10
2017-04-07T09:50:42.640Z,13.20
2017-04-07T09:51:41.891Z,13.30
2017-04-07T09:52:41.556Z,13.40
2017-04-07T09:53:41.607Z,13.50
2017-04-07T09:54:41.348Z,13.70
2017-04-07T09:55:40.522Z,13.80
2017-04-07T09:56:41.463Z,13.80
2017-04-07T09:57:40.818Z,14.00
2017-04-07T09:58:39.875Z,14.00
2017-04-07T09:59:38.946Z,14.00
2017-04-07T10:00:39.138Z,13.80
2017-04-07T10:01:38.202Z,13.70
2017-04-07T10:02:38.203Z,13.60
2017-04-07T10:03:38.854Z,13.50
2017-04-07T10:04:38.470Z,13.50
2017-04-07T10:05:37.623Z,13.50
2017-04-07T10:06:36.704Z,13.50
2017-04-07T10:07:36.630Z,13.50
2017-04-07T10:08:35.690Z,13.60
2017-04-07T10:09:35.839Z,13.50
2017-04-07T10:10:34.906Z,13.50
2017-04-07T10:11:33.994Z,13.50
2017-04-07T10:12:33.074Z,13.50
2017-04-07T10:13:32.190Z,13.60
2017-04-07T10:14:31.262Z,13.60
2017-04-07T10:15:31.438Z,13.70
2017-04-07T10:16:31.295Z,13.80
2017-04-07T10:17:30.410Z,13.80
2017-04-07T10:18:30.227Z,13.80
2017-04-07T10:19:29.298Z,13.80
2017-04-07T10:20:29.106Z,13.70
2017-04-07T10:21:28.937Z,13.60
2017-04-07T10:22:28.047Z,13.80
2017-04-07T10:23:27.204Z,13.70
2017-04-07T10:24:26.427Z,13.70
2017-04-07T10:25:25.506Z,13.70
2017-04-07T10:26:24.612Z,13.50
2017-04-07T10:27:23.684Z,13.50
2017-04-07T10:28:22.778Z,13.60
2017-04-07T10:29:21.967Z,13.70
2017-04-07T10:30:21.087Z,13.70
2017-04-07T10:31:21.138Z,13.70
2017-04-07T10:32:20.250Z,13.80
2017-04-07T10:33:19.323Z,13.90
2017-04-07T10:34:18.659Z,13.90
2017-04-07T10:35:17.719Z,14.00
2017-04-07T10:36:16.833Z,14.00
2017-04-07T10:37:15.946Z,14.10
2017-04-07T10:38:15.754Z,14.20
2017-04-07T10:39:15.622Z,14.50
2017-04-07T10:40:14.691Z,14.70
2017-04-07T10:41:14.842Z,14.60
2017-04-07T10:42:13.943Z,14.60
2017-04-07T10:43:13.009Z,14.50
2017-04-07T10:44:12.087Z,14.50
2017-04-07T10:45:11.160Z,14.40
2017-04-07T10:46:10.239Z,14.50
2017-04-07T10:47:10.055Z,14.50
2017-04-07T10:48:09.170Z,14.50
2017-04-07T10:49:08.980Z,14.40
2017-04-07T10:50:08.036Z,14.20
2017-04-07T10:51:07.115Z,14.10
2017-04-07T10:52:06.191Z,14.00
2017-04-07T10:53:05.355Z,13.90
2017-04-07T10:54:05.200Z,13.70
2017-04-07T10:55:04.281Z,13.60
2017-04-07T10:56:03.400Z,13.60
2017-04-07T10:57:02.463Z,13.60
2017-04-07T10:58:01.530Z,13.50
2017-04-07T10:59:00.760Z,13.40
2017-04-07T10:59:59.831Z,13.20
2017-04-07T11:00:58.926Z,13.10
2017-04-07T11:01:57.990Z,13.10
2017-04-07T11:02:57.047Z,13.10
2017-04-07T11:03:56.102Z,13.00
2017-04-07T11:04:55.934Z,13.00
2017-04-07T11:05:54.998Z,13.10
2017-04-07T11:06:54.823Z,13.10
2017-04-07T11:07:53.922Z,13.30
2017-04-07T11:08:52.970Z,13.30
2017-04-07T11:09:52.083Z,13.40
2017-04-07T11:10:51.152Z,13.30
2017-04-07T11:11:50.970Z,13.30
2017-04-07T11:12:50.046Z,13.20
2017-04-07T11:13:49.175Z,13.20
2017-04-07T11:14:48.367Z,13.30
2017-04-07T11:15:47.430Z,13.30
2017-04-07T11:16:46.512Z,13.30
2017-04-07T11:17:45.586Z,13.50
2017-04-07T11:18:44.704Z,13.60
2017-04-07T11:19:43.778Z,13.70
2017-04-07T11:20:42.898Z,13.80
2017-04-07T11:21:42.730Z,13.70
2017-04-07T11:22:41.794Z,13.80
2017-04-07T11:23:41.667Z,13.60
2017-04-07T11:24:40.715Z,13.80
2017-04-07T11:25:39.798Z,13.90
2017-04-07T11:26:38.890Z,14.00
2017-04-07T11:27:37.938Z,14.00
2017-04-07T11:28:37.751Z,14.00
2017-04-07T11:29:36.814Z,14.10
2017-04-07T11:30:36.663Z,14.10
2017-04-07T11:31:35.766Z,14.20
2017-04-07T11:32:34.822Z,14.30
2017-04-07T11:33:33.932Z,14.40
2017-04-07T11:34:33.050Z,14.40
2017-04-07T11:35:32.130Z,14.50
2017-04-07T11:36:31.231Z,14.40
2017-04-07T11:37:31.104Z,14.40
2017-04-07T11:38:30.320Z,14.50
2017-04-07T11:39:30.098Z,14.50
2017-04-07T11:40:29.155Z,14.50
2017-04-07T11:41:28.210Z,14.50
2017-04-07T11:42:27.323Z,14.40
2017-04-07T11:43:26.396Z,14.40
2017-04-07T11:44:25.562Z,14.40
2017-04-07T11:45:25.358Z,14.40
2017-04-07T11:46:25.143Z,14.20
2017-04-07T11:47:24.219Z,14.20
2017-04-07T11:48:23.375Z,14.10
2017-04-07T11:49:22.430Z,14.00
2017-04-07T11:50:21.615Z,14.00
2017-04-07T11:51:20.671Z,14.00
2017-04-07T11:52:19.732Z,14.00
2017-04-07T11:53:18.817Z,13.90
2017-04-07T11:54:17.915Z,13.80
2017-04-07T11:55:16.963Z,13.70
2017-04-07T11:56:16.015Z,13.60
2017-04-07T11:57:15.867Z,13.50
2017-04-07T11:58:14.956Z,13.60
2017-04-07T11:59:14.017Z,13.60
2017-04-07T12:00:13.100Z,13.60
2017-04-07T12:01:12.199Z,13.60
2017-04-07T12:02:11.243Z,13.60
2017-04-07T12:03:11.046Z,13.60
2017-04-07T12:04:10.854Z,13.60
2017-04-07T12:05:10.946Z,13.60
2017-04-07T12:06:10.753Z,13.60
2017-04-07T12:07:09.881Z,13.60
2017-04-07T12:08:08.950Z,13.70
2017-04-07T12:09:08.003Z,13.70
2017-04-07T12:10:07.815Z,13.70
2017-04-07T12:11:07.654Z,13.70
2017-04-07T12:12:06.715Z,13.70
2017-04-07T12:13:05.824Z,13.80
2017-04-07T12:14:04.923Z,13.90
2017-04-07T12:15:04.371Z,14.00
2017-04-07T12:16:03.416Z,14.00
2017-04-07T12:17:02.522Z,14.10
2017-04-07T12:18:02.335Z,14.00
2017-04-07T12:19:02.119Z,14.00
2017-04-07T12:20:01.934Z,14.10
2017-04-07T12:21:00.979Z,14.20
2017-04-07T12:22:00.022Z,14.10
2017-04-07T12:22:59.119Z,14.10
2017-04-07T12:23:58.199Z,14.10
2017-04-07T12:24:57.247Z,14.10
2017-04-07T12:25:57.039Z,14.10
2017-04-07T12:26:56.108Z,14.20
2017-04-07T12:27:55.168Z,14.20
2017-04-07T12:28:54.290Z,14.20
2017-04-07T12:29:53.340Z,14.30
2017-04-07T12:30:52.451Z,14.30
2017-04-07T12:31:51.582Z,14.30
2017-04-07T12:32:50.631Z,14.30
2017-04-07T12:33:49.727Z,14.30
2017-04-07T12:34:49.521Z,14.40
2017-04-07T12:35:49.378Z,14.30
2017-04-07T12:36:48.438Z,14.30
2017-04-07T12:37:48.242Z,14.30
2017-04-07T12:38:47.286Z,14.40
2017-04-07T12:39:46.394Z,14.30
2017-04-07T12:40:46.174Z,14.30
2017-04-07T12:41:45.222Z,14.40
2017-04-07T12:42:44.300Z,14.50
2017-04-07T12:43:43.371Z,14.50
2017-04-07T12:44:42.509Z,14.50
2017-04-07T12:45:41.636Z,14.60
2017-04-07T12:46:40.695Z,14.60
2017-04-07T12:47:40.580Z,14.60
2017-04-07T12:48:39.622Z,14.70
2017-04-07T12:49:38.750Z,14.60
2017-04-07T12:50:37.839Z,14.50
2017-04-07T12:51:36.925Z,14.50
2017-04-07T12:52:36.009Z,14.40
2017-04-07T12:53:35.073Z,14.30
2017-04-07T12:54:34.879Z,14.30
2017-04-07T12:55:34.014Z,14.40
2017-04-07T12:56:33.838Z,14.40
2017-04-07T12:57:32.925Z,14.40
2017-04-07T12:58:32.003Z,14.40
2017-04-07T12:59:31.058Z,14.40
2017-04-07T13:00:30.841Z,14.40
2017-04-07T13:01:29.930Z,14.50
2017-04-07T13:02:29.010Z,14.60
2017-04-07T13:03:28.055Z,14.60
2017-04-07T13:04:27.154Z,14.60
2017-04-07T13:05:26.207Z,14.60
2017-04-07T13:06:25.258Z,14.60
2017-04-07T13:07:24.327Z,14.60
2017-04-07T13:08:23.424Z,14.70
2017-04-07T13:09:22.474Z,14.70
2017-04-07T13:10:21.631Z,14.70
2017-04-07T13:11:20.692Z,14.60
2017-04-07T13:12:20.514Z,14.50
2017-04-07T13:13:19.576Z,14.50
2017-04-07T13:14:18.638Z,14.50
2017-04-07T13:16:17.153Z,14.30
2017-04-07T13:17:16.227Z,14.20
2017-04-07T13:18:15.287Z,14.20
2017-04-07T13:19:14.350Z,14.20
2017-04-07T13:20:13.476Z,14.20
2017-04-07T13:21:13.283Z,14.10
2017-04-07T13:22:13.157Z,14.20
2017-04-07T13:23:12.222Z,14.20
2017-04-07T13:24:11.313Z,14.10
2017-04-07T13:25:10.431Z,13.90
2017-04-07T13:26:09.532Z,13.60
2017-04-07T13:27:09.354Z,13.40
2017-04-07T13:28:08.476Z,13.20
2017-04-07T13:29:08.288Z,13.10
2017-04-07T13:30:07.431Z,13.10
2017-04-07T13:31:06.535Z,13.00
2017-04-07T13:32:05.648Z,13.00
2017-04-07T13:33:04.798Z,12.90
2017-04-07T13:34:03.872Z,12.90
2017-04-07T13:35:02.947Z,12.90
2017-04-07T13:36:02.011Z,12.90
2017-04-07T13:37:01.818Z,12.80
2017-04-07T13:38:01.610Z,12.80
2017-04-07T13:39:01.471Z,12.80
2017-04-07T13:40:00.543Z,12.90
2017-04-07T13:40:59.685Z,12.90
2017-04-07T13:41:58.763Z,13.00
2017-04-07T13:42:57.829Z,13.00
2017-04-07T13:43:56.888Z,13.10
2017-04-07T13:44:56.103Z,13.10
2017-04-07T13:45:55.162Z,13.10
2017-04-07T13:46:54.235Z,13.10
2017-04-07T13:47:53.350Z,13.20
2017-04-07T13:48:52.443Z,13.20
2017-04-07T13:49:51.551Z,13.30
2017-04-07T13:50:50.678Z,13.30
2017-04-07T13:51:49.735Z,13.40
2017-04-07T13:52:48.790Z,13.50
2017-04-07T13:53:47.864Z,13.50
2017-04-07T13:54:46.930Z,13.60
2017-04-07T13:55:46.031Z,13.60
2017-04-07T13:56:45.394Z,13.70
2017-04-07T13:57:44.467Z,13.70
2017-04-07T13:58:43.545Z,13.70
2017-04-07T13:59:42.623Z,13.70
2017-04-07T14:00:42.426Z,13.60
2017-04-07T14:01:41.547Z,13.60
2017-04-07T14:02:40.733Z,13.60
2017-04-07T14:03:39.808Z,13.60
2017-04-07T14:04:38.932Z,13.60
2017-04-07T14:05:37.997Z,13.70
2017-04-07T14:06:37.254Z,13.70
2017-04-07T14:07:36.388Z,13.70
2017-04-07T14:08:35.474Z,13.70
2017-04-07T14:09:34.534Z,13.70
2017-04-07T14:10:33.662Z,13.70
2017-04-07T14:11:32.751Z,13.80
2017-04-07T14:12:32.562Z,13.80
2017-04-07T14:13:32.398Z,13.90
2017-04-07T14:14:31.467Z,14.00
2017-04-07T14:15:31.335Z,14.10
2017-04-07T14:16:30.394Z,14.10
2017-04-07T14:17:29.455Z,14.10
2017-04-07T14:18:28.524Z,14.10
2017-04-07T14:19:27.619Z,14.10
2017-04-07T14:20:26.731Z,14.10
2017-04-07T14:21:25.842Z,14.10
2017-04-07T14:22:25.018Z,14.10
2017-04-07T14:24:23.502Z,14.10
2017-04-07T14:25:22.612Z,14.00
2017-04-07T14:26:22.429Z,13.90
2017-04-07T14:27:21.483Z,13.90
2017-04-07T14:28:20.595Z,13.90
2017-04-07T14:29:20.466Z,13.80
2017-04-07T14:30:19.632Z,13.90
2017-04-07T14:31:18.716Z,13.90
2017-04-07T14:32:17.936Z,13.90
2017-04-07T14:33:17.743Z,13.90
2017-04-07T14:34:17.588Z,13.90
2017-04-07T14:35:16.807Z,13.90
2017-04-07T14:36:15.923Z,13.90
2017-04-07T14:37:15.706Z,13.90
2017-04-07T14:38:14.754Z,13.90
2017-04-07T14:39:13.802Z,13.90
2017-04-07T14:40:13.656Z,13.90
2017-04-07T14:41:12.710Z,13.90
2017-04-07T14:42:11.839Z,13.80
2017-04-07T14:43:10.917Z,13.80
2017-04-07T14:44:09.988Z,13.70
2017-04-07T14:45:09.047Z,13.70
2017-04-07T14:46:08.124Z,13.70
2017-04-07T14:47:07.243Z,13.70
2017-04-07T14:48:07.070Z,13.70
2017-04-07T14:49:06.147Z,13.80
2017-04-07T14:50:05.335Z,13.80
2017-04-07T14:51:04.435Z,13.90
2017-04-07T14:52:03.572Z,13.90
2017-04-07T14:53:02.690Z,13.90
2017-04-07T14:54:01.794Z,13.90
2017-04-07T14:55:00.842Z,13.90
2017-04-07T14:55:59.892Z,13.90
2017-04-07T14:56:58.951Z,13.90
2017-04-07T14:57:58.006Z,13.80
2017-04-07T14:58:57.119Z,13.80
2017-04-07T14:59:56.175Z,13.80
2017-04-07T15:00:55.966Z,13.80
2017-04-07T15:01:55.052Z,13.80
2017-04-07T15:02:54.107Z,13.80
2017-04-07T15:03:53.162Z,13.80
2017-04-07T15:04:53.021Z,13.70
2017-04-07T15:05:52.114Z,13.70
2017-04-07T15:06:51.261Z,13.70
2017-04-07T15:07:50.327Z,13.70
2017-04-07T15:08:50.129Z,13.60
2017-04-07T15:09:49.976Z,13.60
2017-04-07T15:10:49.146Z,13.70
2017-04-07T15:11:48.222Z,13.70
2017-04-07T15:12:47.302Z,13.70
2017-04-07T15:13:46.370Z,13.70
2017-04-07T15:14:46.229Z,13.70
2017-04-07T15:15:45.319Z,13.80
2017-04-07T15:16:45.209Z,13.70
2017-04-07T15:17:44.287Z,13.80
2017-04-07T15:18:43.332Z,13.80
2017-04-07T15:19:43.131Z,13.70
2017-04-07T15:20:42.950Z,13.80
2017-04-07T15:21:42.754Z,13.80
2017-04-07T15:22:42.614Z,13.80
2017-04-07T15:23:41.674Z,13.90
2017-04-07T15:24:40.739Z,14.00
2017-04-07T15:25:39.795Z,14.00
2017-04-07T15:26:39.594Z,14.00
2017-04-07T15:27:39.406Z,14.00
2017-04-07T15:28:39.302Z,14.00
2017-04-07T15:29:39.104Z,14.00
2017-04-07T15:30:38.162Z,14.00
2017-04-07T15:31:37.204Z,13.90
2017-04-07T15:32:36.255Z,13.90
2017-04-07T15:33:36.067Z,13.90
2017-04-07T15:34:35.964Z,13.90
2017-04-07T15:35:35.786Z,13.90
2017-04-07T15:36:34.823Z,14.00
2017-04-07T15:37:33.909Z,14.00
2017-04-07T15:38:33.511Z,14.00
2017-04-07T15:39:32.545Z,14.00
2017-04-07T15:40:31.658Z,14.00
2017-04-07T15:41:30.707Z,14.10
2017-04-07T15:42:29.786Z,14.10
2017-04-07T15:43:28.846Z,14.10
2017-04-07T15:44:28.727Z,14.10
2017-04-07T15:45:27.792Z,14.10
2017-04-07T15:46:26.910Z,14.10
2017-04-07T15:47:26.007Z,14.10
2017-04-07T15:48:25.819Z,14.00
2017-04-07T15:49:25.642Z,14.00
2017-04-07T15:50:24.727Z,14.10
2017-04-07T15:51:23.771Z,14.10
2017-04-07T15:52:22.854Z,14.10
2017-04-07T15:53:22.239Z,14.10
2017-04-07T15:54:21.302Z,14.10
2017-04-07T15:55:21.144Z,14.00
2017-04-07T15:56:21.112Z,14.00
2017-04-07T15:57:20.255Z,14.00
2017-04-07T15:58:19.319Z,14.00
2017-04-07T15:59:18.382Z,14.00
2017-04-07T16:00:17.439Z,13.90
2017-04-07T16:01:16.672Z,13.90
2017-04-07T16:02:15.837Z,13.90
2017-04-07T16:03:14.905Z,13.90
2017-04-07T16:04:13.991Z,13.80
2017-04-07T16:05:13.070Z,13.80
2017-04-07T16:06:12.152Z,13.80
2017-04-07T16:07:11.467Z,13.80
2017-04-07T16:08:10.524Z,13.80
2017-04-07T16:09:09.587Z,13.80
2017-04-07T16:10:08.639Z,13.90
2017-04-07T16:11:07.688Z,13.90
2017-04-07T16:12:06.798Z,13.90
2017-04-07T16:13:05.885Z,13.90
2017-04-07T16:14:04.972Z,13.90
2017-04-07T16:15:04.063Z,13.90
2017-04-07T16:16:03.197Z,14.00
2017-04-07T16:17:02.259Z,14.00
2017-04-07T16:18:01.598Z,14.00
2017-04-07T16:19:00.667Z,14.00
2017-04-07T16:19:59.734Z,14.00
2017-04-07T16:20:58.803Z,14.00
2017-04-07T16:21:57.866Z,14.00
2017-04-07T16:22:56.934Z,14.00
2017-04-07T16:23:56.291Z,14.00
2017-04-07T16:24:55.382Z,14.00
2017-04-07T16:25:54.437Z,13.90
2017-04-07T16:26:53.510Z,13.90
2017-04-07T16:27:53.351Z,13.90
2017-04-07T16:28:52.691Z,13.90
2017-04-07T16:29:52.526Z,13.80
2017-04-07T16:30:51.585Z,13.90
2017-04-07T16:31:50.643Z,13.90
2017-04-07T16:32:49.697Z,13.90
2017-04-07T16:33:48.775Z,13.90
2017-04-07T16:34:47.866Z,13.90
2017-04-07T16:35:46.955Z,14.00
2017-04-07T16:36:46.010Z,13.90
2017-04-07T16:37:45.087Z,13.80
2017-04-07T16:38:44.900Z,13.80
2017-04-07T16:39:44.166Z,13.80
2017-04-07T16:40:43.992Z,13.70
2017-04-07T16:41:43.115Z,13.70
2017-04-07T16:42:42.207Z,13.70
2017-04-07T16:43:41.276Z,13.70
2017-04-07T16:44:40.333Z,13.70
2017-04-07T16:45:39.414Z,13.70
2017-04-07T16:46:38.537Z,13.60
2017-04-07T16:47:37.629Z,13.70
2017-04-07T16:48:36.707Z,13.70
2017-04-07T16:49:35.759Z,13.70
2017-04-07T16:50:34.858Z,13.70
2017-04-07T16:51:33.930Z,13.70
2017-04-07T16:52:33.006Z,13.70
2017-04-07T16:53:32.125Z,13.70
2017-04-07T16:54:31.195Z,13.60
2017-04-07T16:55:30.279Z,13.60
2017-04-07T16:56:29.361Z,13.60
2017-04-07T16:57:28.447Z,13.60
2017-04-07T16:58:27.523Z,13.60
2017-04-07T16:59:27.599Z,13.60
2017-04-07T17:00:27.423Z,13.60
2017-04-07T17:01:26.602Z,13.60
2017-04-07T17:02:25.861Z,13.60
2017-04-07T17:03:25.215Z,13.60
2017-04-07T17:04:24.324Z,13.60
2017-04-07T17:05:23.480Z,13.70
2017-04-07T17:06:22.565Z,13.60
2017-04-07T17:07:21.645Z,13.70
2017-04-07T17:08:20.715Z,13.60
2017-04-07T17:09:19.815Z,13.60
2017-04-07T17:10:18.910Z,13.60
2017-04-07T17:11:17.971Z,13.70
2017-04-07T17:12:17.027Z,13.60
2017-04-07T17:13:16.090Z,13.60
2017-04-07T17:14:15.151Z,13.60
2017-04-07T17:15:14.401Z,13.60
2017-04-07T17:16:14.311Z,13.50
2017-04-07T17:17:14.188Z,13.50
2017-04-07T17:18:13.251Z,13.50
2017-04-07T17:19:12.322Z,13.50
2017-04-07T17:20:11.382Z,13.60
2017-04-07T17:21:10.508Z,13.60
2017-04-07T17:22:09.858Z,13.60
2017-04-07T17:23:08.932Z,13.70
2017-04-07T17:24:08.755Z,13.60
2017-04-07T17:25:07.871Z,13.60
2017-04-07T17:26:07.069Z,13.60
2017-04-07T17:27:06.145Z,13.60
2017-04-07T17:28:05.481Z,13.60
2017-04-07T17:29:05.356Z,13.60
2017-04-07T17:30:04.425Z,13.60
2017-04-07T17:31:04.279Z,13.60
2017-04-07T17:32:03.359Z,13.60
2017-04-07T17:33:03.167Z,13.60
2017-04-07T17:34:02.233Z,13.60
2017-04-07T17:35:02.070Z,13.50
2017-04-07T17:36:01.139Z,13.60
2017-04-07T17:37:00.242Z,13.60
2017-04-07T17:37:59.288Z,13.50
2017-04-07T17:38:59.165Z,13.50
2017-04-07T17:39:58.371Z,13.50
2017-04-07T17:40:57.490Z,13.60
2017-04-07T17:41:56.546Z,13.60
2017-04-07T17:43:55.027Z,13.60
2017-04-07T17:44:54.811Z,13.60
2017-04-07T17:45:53.894Z,13.70
2017-04-07T17:46:52.939Z,13.70
2017-04-07T17:47:51.991Z,13.70
2017-04-07T17:48:51.818Z,13.60
2017-04-07T17:49:50.900Z,13.70
2017-04-07T17:50:49.980Z,13.70
2017-04-07T17:51:49.039Z,13.60
2017-04-07T17:52:48.836Z,13.60
2017-04-07T17:53:47.891Z,13.70
2017-04-07T17:54:46.940Z,13.60
2017-04-07T17:55:46.022Z,13.60
2017-04-07T17:56:45.074Z,13.60
2017-04-07T17:57:44.880Z,13.50
2017-04-07T17:58:44.678Z,13.50
2017-04-07T17:59:44.466Z,13.50
2017-04-07T18:00:43.534Z,13.60
2017-04-07T18:01:42.607Z,13.60
2017-04-07T18:02:41.663Z,13.50
2017-04-07T18:03:40.730Z,13.50
2017-04-07T18:04:40.695Z,13.50
2017-04-07T18:05:39.735Z,13.50
2017-04-07T18:06:38.810Z,13.50
2017-04-07T18:07:38.607Z,13.50
2017-04-07T18:08:38.400Z,13.50
2017-04-07T18:09:38.216Z,13.50
2017-04-07T18:10:37.270Z,13.50
2017-04-07T18:11:36.342Z,13.50
2017-04-07T18:12:35.581Z,13.50
2017-04-07T18:13:34.661Z,13.50
2017-04-07T18:14:33.757Z,13.50
2017-04-07T18:15:32.846Z,13.50
2017-04-07T18:16:31.955Z,13.50
2017-04-07T18:17:31.064Z,13.50
2017-04-07T18:19:30.437Z,13.50
2017-04-07T18:20:29.545Z,13.50
2017-04-07T18:21:28.642Z,13.50
2017-04-07T18:22:27.891Z,13.50
2017-04-07T18:23:27.149Z,13.50
2017-04-07T18:24:27.448Z,13.50
2017-04-07T18:25:27.263Z,13.40
2017-04-07T18:26:26.503Z,13.50
2017-04-07T18:27:25.902Z,13.50
2017-04-07T18:28:25.012Z,13.40
2017-04-07T18:29:24.855Z,13.40
2017-04-07T18:30:23.965Z,13.40
2017-04-07T18:31:23.078Z,13.40
2017-04-07T18:32:22.164Z,13.40
2017-04-07T18:33:21.980Z,13.30
2017-04-07T18:34:21.803Z,13.30
2017-04-07T18:35:20.959Z,13.40
2017-04-07T18:36:20.819Z,13.30
2017-04-07T18:37:19.920Z,13.40
2017-04-07T18:38:19.004Z,13.40
2017-04-07T18:39:18.071Z,13.40
2017-04-07T18:40:17.179Z,13.40
2017-04-07T18:41:16.255Z,13.40
2017-04-07T18:42:15.304Z,13.40
2017-04-07T18:43:14.395Z,13.40
2017-04-07T18:44:13.475Z,13.40
2017-04-07T18:45:12.555Z,13.40
2017-04-07T18:46:11.889Z,13.40
2017-04-07T18:47:10.966Z,13.40
2017-04-07T18:48:10.081Z,13.30
2017-04-07T18:49:09.183Z,13.30
2017-04-07T18:50:09.011Z,13.30
2017-04-07T18:51:08.072Z,13.40
2017-04-07T18:52:07.928Z,13.30
2017-04-07T18:53:07.011Z,13.30
2017-04-07T18:54:06.106Z,13.40
2017-04-07T18:55:05.212Z,13.40
2017-04-07T18:56:04.392Z,13.40
2017-04-07T18:57:03.558Z,13.40
2017-04-07T18:58:02.639Z,13.40
2017-04-07T18:59:02.458Z,13.30
2017-04-07T19:00:01.557Z,13.30
2017-04-07T19:01:00.672Z,13.20
2017-04-07T19:01:59.767Z,13.20
2017-04-07T19:02:58.841Z,13.20
2017-04-07T19:03:57.912Z,13.20
2017-04-07T19:04:57.780Z,13.10
2017-04-07T19:05:56.840Z,13.10
2017-04-07T19:06:55.928Z,13.10
2017-04-07T19:07:55.123Z,13.10
2017-04-07T19:08:54.191Z,13.10
2017-04-07T19:09:53.313Z,13.10
2017-04-07T19:10:52.396Z,13.10
2017-04-07T19:11:51.624Z,13.10
2017-04-07T19:12:51.465Z,13.00
2017-04-07T19:13:50.573Z,13.00
2017-04-07T19:14:49.697Z,13.00
2017-04-07T19:15:48.763Z,13.00
2017-04-07T19:16:47.843Z,13.00
2017-04-07T19:17:46.968Z,13.00
2017-04-07T19:18:46.050Z,13.00
2017-04-07T19:19:45.104Z,13.00
2017-04-07T19:20:44.985Z,13.00
2017-04-07T19:21:44.111Z,13.00
2017-04-07T19:22:43.928Z,12.90
2017-04-07T19:23:43.034Z,12.90
2017-04-07T19:24:42.175Z,12.90
2017-04-07T19:25:42.046Z,12.90
2017-04-07T19:26:41.467Z,12.90
2017-04-07T19:27:41.315Z,12.90
2017-04-07T19:28:40.447Z,12.90
2017-04-07T19:29:39.519Z,12.90
2017-04-07T19:30:38.859Z,12.90
2017-04-07T19:31:37.945Z,12.90
2017-04-07T19:32:37.060Z,12.80
2017-04-07T19:33:36.159Z,12.90
2017-04-07T19:34:35.376Z,12.90
2017-04-07T19:35:35.268Z,12.80
2017-04-07T19:36:34.401Z,12.90
2017-04-07T19:37:33.545Z,12.90
2017-04-07T19:38:33.132Z,12.80
2017-04-07T19:39:32.240Z,12.80
2017-04-07T19:40:32.183Z,12.80
2017-04-07T19:41:31.664Z,12.80
2017-04-07T19:42:30.770Z,12.80
2017-04-07T19:43:29.894Z,12.80
2017-04-07T19:44:28.974Z,12.80
2017-04-07T19:45:28.073Z,12.80
2017-04-07T19:46:27.905Z,12.70
2017-04-07T19:47:26.994Z,12.80
2017-04-07T19:48:26.079Z,12.80
2017-04-07T19:49:25.187Z,12.70
2017-04-07T19:50:24.274Z,12.70
2017-04-07T19:51:23.350Z,12.70
2017-04-07T19:52:22.483Z,12.70
2017-04-07T19:53:22.303Z,12.60
2017-04-07T19:54:21.397Z,12.70
2017-04-07T19:55:20.469Z,12.70
2017-04-07T19:56:20.291Z,12.60
2017-04-07T19:57:19.534Z,12.60
2017-04-07T19:58:18.623Z,12.60
2017-04-07T20:00:17.843Z,12.50
2017-04-07T20:01:17.672Z,12.50
2017-04-07T20:02:16.775Z,12.60
2017-04-07T20:03:15.831Z,12.60
2017-04-07T20:04:14.916Z,12.60
2017-04-07T20:05:13.982Z,12.50
2017-04-07T20:06:13.785Z,12.50
2017-04-07T20:07:13.659Z,12.50
2017-04-07T20:08:12.759Z,12.50
2017-04-07T20:09:12.579Z,12.50
2017-04-07T20:10:12.389Z,12.50
2017-04-07T20:11:11.459Z,12.50
2017-04-07T20:12:11.326Z,12.50
2017-04-07T20:13:10.531Z,12.50
2017-04-07T20:14:10.362Z,12.50
2017-04-07T20:15:10.232Z,12.50
2017-04-07T20:17:08.835Z,12.50
2017-04-07T20:18:08.703Z,12.40